Time;durP1;ratioP1;P1;durP2;ratioP2;P2;SDS_P1;SDS_P2;PMS_P1;PMS_P2;Temp;Humidity;BMP_temperature;BMP_pressure;BME280_temperature;BME280_humidity;BME280_pressure;Samples;Min_cycle;Max_cycle;Signal;HPM_P1;HPM_P2
2022/10/25 06:00:45;;;;;;;;;;;;;;;15.84;80.45;97242.16;4246369;27;10148;-76
2022/10/25 06:02:47;;;;;;;;;;;;;;;16.12;79.59;97237.25;4247953;27;5609;-76
2022/10/25 06:04:51;;;;;;;;;;;;;;;16.35;79.21;97233.97;4241774;27;5613;-76
2022/10/25 06:06:54;;;;;;;;;;;;;;;16.50;78.51;97238.97;4248215;27;5597;-77
2022/10/25 06:08:58;;;;;;;;;;;;;;;16.59;78.18;97237.66;4235515;27;5889;-76
2022/10/25 06:11:02;;;;;;;;;;;;;;;16.70;77.46;97239.63;4246679;27;5605;-76
2022/10/25 06:13:04;;;;;;;;;;;;;;;16.80;77.45;97253.28;4248854;27;5721;-76
2022/10/25 06:15:09;;;;;;;;;;;;;;;16.88;77.09;97252.19;4239625;27;5636;-77
2022/10/25 06:17:13;;;;;;;;;;;;;;;16.91;77.02;97246.41;4245223;27;5601;-78
2022/10/25 06:19:16;;;;;;;;;;;;;;;16.98;76.54;97249.00;4245003;27;5673;-77
2022/10/25 06:21:20;;;;;;;;;;;;;;;17.02;76.40;97244.84;4254248;27;6256;-77
2022/10/25 06:23:23;;;;;;;;;;;;;;;17.04;76.25;97245.44;4249928;27;5594;-77
2022/10/25 06:25:26;;;;;;;;;;;;;;;17.03;76.00;97247.28;4248366;27;5701;-77
2022/10/25 06:27:28;;;;;;;;;;;;;;;17.03;75.58;97246.47;4240059;27;5851;-78
2022/10/25 06:29:31;;;;;;;;;;;;;;;17.05;75.93;97252.41;4256130;27;5600;-77
2022/10/25 06:31:34;;;;;;;;;;;;;;;17.05;75.46;97255.91;4256744;27;5586;-77
2022/10/25 06:33:39;;;;;;;;;;;;;;;17.07;75.17;97253.00;4254322;27;6306;-77
2022/10/25 06:35:42;;;;;;;;;;;;;;;17.10;75.21;97249.88;4228118;28;5682;-78
2022/10/25 06:37:45;;;;;;;;;;;;;;;17.08;74.99;97250.09;4249443;27;5589;-78
2022/10/25 06:39:48;;;;;;;;;;;;;;;17.11;75.02;97254.19;4249885;27;5913;-78
2022/10/25 06:41:50;;;;;;;;;;;;;;;17.13;74.62;97252.13;4242344;27;6311;-78
2022/10/25 06:43:54;;;;;;;;;;;;;;;17.16;74.46;97254.34;4242270;27;5685;-76
2022/10/25 06:45:57;;;;;;;;;;;;;;;17.14;73.85;97259.09;4244911;27;5748;-77
2022/10/25 06:48:00;;;;;;;;;;;;;;;17.16;74.26;97257.00;4246994;27;5661;-77
2022/10/25 06:50:05;;;;;;;;;;;;;;;17.18;73.78;97260.25;4239846;27;5621;-77
2022/10/25 06:52:13;;;;;;;;;;;;;;;17.15;73.78;97272.22;4244340;27;5644;-78
2022/10/25 06:54:16;;;;;;;;;;;;;;;17.16;73.58;97267.69;4245038;27;5681;-77
2022/10/25 06:56:21;;;;;;;;;;;;;;;17.22;73.54;97263.34;4246693;27;5596;-76
2022/10/25 06:58:24;;;;;;;;;;;;;;;17.23;73.22;97273.78;4256601;27;5635;-75
2022/10/25 07:00:28;;;;;;;;;;;;;;;17.25;73.08;97271.72;4246455;27;5668;-74
2022/10/25 07:02:31;;;;;;;;;;;;;;;17.25;73.10;97271.72;4226505;28;5748;-77
2022/10/25 07:04:34;;;;;;;;;;;;;;;17.28;72.90;97270.44;4228655;28;5781;-81
2022/10/25 07:06:39;;;;;;;;;;;;;;;17.31;72.74;97273.47;4222185;28;6279;-83
2022/10/25 07:08:44;;;;;;;;;;;;;;;17.28;72.45;97273.09;4229756;28;5764;-76
2022/10/25 07:10:53;;;;;;;;;;;;;;;17.24;72.54;97275.41;4229599;28;5703;-76
2022/10/25 07:12:56;;;;;;;;;;;;;;;17.24;72.56;97280.75;4218930;28;5730;-76
2022/10/25 07:14:59;;;;;;;;;;;;;;;17.24;72.45;97275.41;4219498;28;5612;-76
2022/10/25 07:17:02;;;;;;;;;;;;;;;17.27;72.33;97277.63;4219584;28;5604;-76
2022/10/25 07:19:05;;;;;;;;;;;;;;;17.26;72.38;97275.19;4219554;28;5801;-76
2022/10/25 07:21:13;;;;;;;;;;;;;;;17.25;72.32;97277.06;4219299;28;5853;-77
2022/10/25 07:23:17;;;;;;;;;;;;;;;17.31;72.03;97280.66;4219680;28;5611;-76
2022/10/25 07:25:20;;;;;;;;;;;;;;;17.37;71.97;97290.47;4219535;28;5624;-76
2022/10/25 07:27:23;;;;;;;;;;;;;;;17.42;71.92;97278.06;4219699;28;5608;-76
2022/10/25 07:29:26;;;;;;;;;;;;;;;17.46;71.71;97283.78;4219469;28;5727;-77
2022/10/25 07:31:31;;;;;;;;;;;;;;;17.46;71.31;97278.44;4219166;28;5612;-77
2022/10/25 07:33:35;;;;;;;;;;;;;;;17.46;71.54;97276.59;4235752;28;5625;-76
2022/10/25 07:35:37;;;;;;;;;;;;;;;17.46;71.32;97283.78;4218844;28;5064;-77
2022/10/25 07:38:00;;;;;;;;;;;;;;;17.48;71.20;97280.88;4236396;28;5685;-76
2022/10/25 07:40:06;;;;;;;;;;;;;;;17.49;71.13;97287.88;4239395;27;6279;-77
2022/10/25 07:42:10;;;;;;;;;;;;;;;17.49;71.15;97290.53;4238706;27;5664;-77
2022/10/25 07:44:13;;;;;;;;;;;;;;;17.46;70.99;97287.28;4235895;28;5725;-76
2022/10/25 07:46:21;;;;;;;;;;;;;;;17.45;70.48;97288.31;4250673;27;5594;-76
2022/10/25 07:48:24;;;;;;;;;;;;;;;17.40;70.79;97295.38;4244021;27;5586;-76
2022/10/25 07:50:27;;;;;;;;;;;;;;;17.43;71.00;97298.41;4243923;27;5582;-76
2022/10/25 07:52:30;;;;;;;;;;;;;;;17.46;70.56;97295.28;4236426;27;5824;-76
2022/10/25 07:54:33;;;;;;;;;;;;;;;17.51;70.54;97307.16;4235925;28;5601;-76
2022/10/25 07:56:37;;;;;;;;;;;;;;;17.55;70.51;97293.09;4235811;28;5597;-76
2022/10/25 07:58:40;;;;;;;;;;;;;;;17.59;70.39;97299.66;4219241;28;5736;-77
2022/10/25 08:00:43;;;;;;;;;;;;;;;17.61;70.36;97300.25;4209875;28;5393;-76
2022/10/25 08:02:46;;;;;;;;;;;;;;;17.61;70.13;97304.78;4201765;28;8466;-76
2022/10/25 08:04:49;;;;;;;;;;;;;;;17.64;70.24;97307.00;4201843;28;5678;-75
2022/10/25 08:06:59;;;;;;;;;;;;;;;17.59;70.03;97305.00;4202107;28;5710;-76
2022/10/25 08:09:01;;;;;;;;;;;;;;;17.62;70.07;97309.06;4201949;28;5686;-76
2022/10/25 08:11:22;;;;;;;;;;;;;;;17.65;69.99;97314.78;4202011;28;6496;-76
2022/10/25 08:13:26;;;;;;;;;;;;;;;17.66;69.99;97312.94;4201035;28;5686;-76
2022/10/25 08:15:29;;;;;;;;;;;;;;;17.63;69.99;97308.03;4201815;28;5083;-76
2022/10/25 08:17:32;;;;;;;;;;;;;;;17.66;69.72;97304.91;4201750;28;5690;-76
2022/10/25 08:19:34;;;;;;;;;;;;;;;17.72;69.90;97304.03;4201478;28;6382;-76
2022/10/25 08:21:37;;;;;;;;;;;;;;;17.74;69.75;97304.63;4199867;28;5739;-77
2022/10/25 08:23:41;;;;;;;;;;;;;;;17.76;69.69;97305.22;4201458;28;5702;-76
2022/10/25 08:25:43;;;;;;;;;;;;;;;17.81;69.73;97312.56;4201824;28;5709;-76
2022/10/25 08:27:46;;;;;;;;;;;;;;;17.85;69.59;97301.19;4201739;28;5698;-77
2022/10/25 08:29:51;;;;;;;;;;;;;;;17.88;69.67;97306.06;4201452;28;5682;-77
2022/10/25 08:31:54;;;;;;;;;;;;;;;17.88;69.50;97294.56;4201908;28;5714;-77
2022/10/25 08:33:57;;;;;;;;;;;;;;;17.88;69.18;97298.06;4200490;28;5750;-78
2022/10/25 08:36:01;;;;;;;;;;;;;;;17.89;69.45;97294.34;4201586;28;5705;-78
2022/10/25 08:38:05;;;;;;;;;;;;;;;17.92;69.24;97299.25;4201783;28;5852;-78
2022/10/25 08:40:17;;;;;;;;;;;;;;;17.93;69.05;97298.22;4191341;28;5730;-78
2022/10/25 08:42:24;;;;;;;;;;;;;;;17.89;69.02;97294.34;4185453;28;5710;-78
2022/10/25 08:44:38;;;;;;;;;;;;;;;17.88;68.90;97298.06;4185350;28;5813;-78
2022/10/25 08:46:53;;;;;;;;;;;;;;;17.90;68.81;97300.53;4185835;28;5900;-78
2022/10/25 08:49:06;;;;;;;;;;;;;;;17.92;68.94;97298.44;4185321;28;5714;-78
2022/10/25 08:51:24;;;;;;;;;;;;;;;17.92;68.52;97293.91;4184791;28;5399;-78
2022/10/25 08:53:32;;;;;;;;;;;;;;;17.91;68.30;97286.94;4184634;28;7767;-76
2022/10/25 08:55:37;;;;;;;;;;;;;;;17.90;68.29;97287.16;4185727;28;5764;-76
2022/10/25 08:57:57;;;;;;;;;;;;;;;17.93;68.33;97284.84;4186937;28;5723;-77
2022/10/25 09:00:06;;;;;;;;;;;;;;;17.91;68.37;97286.94;4208267;28;5612;-77
2022/10/25 09:02:17;;;;;;;;;;;;;;;17.87;67.99;97280.38;4220735;28;5620;-77
2022/10/25 09:04:21;;;;;;;;;;;;;;;17.90;67.94;97281.81;4201482;28;5686;-78
2022/10/25 09:06:32;;;;;;;;;;;;;;;17.91;68.05;97275.41;4235778;27;6064;-77
2022/10/25 09:08:48;;;;;;;;;;;;;;;17.90;68.02;97281.81;4235877;28;5688;-77
2022/10/25 09:10:58;;;;;;;;;;;;;;;17.91;67.72;97275.41;4236503;28;5676;-78
2022/10/25 09:13:10;;;;;;;;;;;;;;;17.97;67.88;97280.66;4234984;28;5587;-77
2022/10/25 09:15:28;;;;;;;;;;;;;;;18.00;67.62;97274.84;4223979;28;5598;-78
2022/10/25 09:17:36;;;;;;;;;;;;;;;17.98;67.46;97276.94;4234301;28;5839;-79
2022/10/25 09:19:51;;;;;;;;;;;;;;;18.01;67.55;97271.13;4229315;28;5708;-79
2022/10/25 09:22:00;;;;;;;;;;;;;;;18.03;67.50;97274.41;4236544;28;5729;-77
2022/10/25 09:24:09;;;;;;;;;;;;;;;18.06;67.52;97277.66;4236319;28;5652;-77
2022/10/25 09:26:21;;;;;;;;;;;;;;;18.06;67.60;97280.31;4237117;28;5585;-78
2022/10/25 09:28:29;;;;;;;;;;;;;;;18.07;67.22;97282.78;4236954;28;5625;-78
2022/10/25 09:30:37;;;;;;;;;;;;;;;18.09;67.16;97282.53;4243376;27;5586;-77
2022/10/25 09:32:47;;;;;;;;;;;;;;;18.10;67.31;97292.19;4243836;27;5626;-77
2022/10/25 09:34:51;;;;;;;;;;;;;;;18.12;66.97;97288.28;4253948;27;5590;-78
2022/10/25 09:36:59;;;;;;;;;;;;;;;18.13;66.99;97289.09;4241436;27;5807;-77
2022/10/25 09:39:05;;;;;;;;;;;;;;;18.14;67.01;97291.53;4234218;28;5877;-76
2022/10/25 09:41:14;;;;;;;;;;;;;;;18.15;67.06;97292.34;4236413;27;5653;-76
2022/10/25 09:43:22;;;;;;;;;;;;;;;18.16;66.90;97294.78;4233873;28;5601;-76
2022/10/25 09:45:30;;;;;;;;;;;;;;;18.17;66.99;97288.38;4233893;28;5688;-77
2022/10/25 09:47:40;;;;;;;;;;;;;;;18.16;66.81;97289.44;4250366;27;5760;-77
2022/10/25 09:49:53;;;;;;;;;;;;;;;18.21;66.88;97296.75;4250945;27;6472;-77
2022/10/25 09:52:03;;;;;;;;;;;;;;;18.24;66.74;97293.66;4250831;27;5666;-77
2022/10/25 09:54:15;;;;;;;;;;;;;;;18.23;66.79;97290.16;4246753;27;5613;-77
2022/10/25 09:56:18;;;;;;;;;;;;;;;18.25;66.65;97295.28;4225068;27;5624;-77
2022/10/25 09:58:23;;;;;;;;;;;;;;;18.25;66.78;97295.28;4235264;27;5597;-77
2022/10/25 10:00:25;;;;;;;;;;;;;;;18.25;66.72;97292.59;4224702;28;5727;-77
2022/10/25 10:02:29;;;;;;;;;;;;;;;18.28;66.68;97289.47;4241024;27;5598;-77
2022/10/25 10:04:35;;;;;;;;;;;;;;;18.27;66.27;97287.84;4250706;27;6294;-77
2022/10/25 10:06:40;;;;;;;;;;;;;;;18.28;66.59;97289.47;4224929;28;5602;-76
2022/10/25 10:08:49;;;;;;;;;;;;;;;18.28;66.61;97284.91;4242792;27;5641;-77
2022/10/25 10:10:54;;;;;;;;;;;;;;;18.26;66.50;97284.34;4242008;27;5695;-76
2022/10/25 10:13:04;;;;;;;;;;;;;;;18.26;66.48;97286.19;4250709;27;5586;-77
2022/10/25 10:15:14;;;;;;;;;;;;;;;18.27;66.34;97279.81;4232098;27;5621;-78
2022/10/25 10:17:19;;;;;;;;;;;;;;;18.29;66.17;97277.69;4250544;27;5843;-77
2022/10/25 10:19:28;;;;;;;;;;;;;;;18.29;66.17;97275.84;4234958;27;7683;-77
2022/10/25 10:21:32;;;;;;;;;;;;;;;18.30;66.40;97277.47;4240919;27;5570;-77
2022/10/25 10:23:45;;;;;;;;;;;;;;;18.31;66.22;97275.59;4242139;27;5593;-77
2022/10/25 10:25:48;;;;;;;;;;;;;;;18.31;66.20;97280.97;4233425;28;5618;-77
2022/10/25 10:27:53;;;;;;;;;;;;;;;18.32;66.22;97277.25;4238327;27;6391;-78
2022/10/25 10:29:59;;;;;;;;;;;;;;;18.34;66.22;97283.16;4241857;27;5740;-77
2022/10/25 10:32:05;;;;;;;;;;;;;;;18.34;66.36;97280.50;4233430;28;5597;-77
2022/10/25 10:34:23;;;;;;;;;;;;;;;18.34;66.05;97277.81;4241629;27;5692;-77
2022/10/25 10:36:28;;;;;;;;;;;;;;;18.36;66.10;97283.78;4241962;27;5701;-77
2022/10/25 10:38:31;;;;;;;;;;;;;;;18.37;65.92;97276.56;4245931;27;5622;-77
2022/10/25 10:40:38;;;;;;;;;;;;;;;18.37;65.84;97281.91;4244879;27;5614;-77
2022/10/25 10:42:41;;;;;;;;;;;;;;;18.38;66.12;97270.97;4244342;27;5853;-78
2022/10/25 10:45:02;;;;;;;;;;;;;;;18.38;65.73;97281.69;4244746;27;5712;-78
2022/10/25 10:47:12;;;;;;;;;;;;;;;18.37;65.66;97287.28;4244922;27;5626;-78
2022/10/25 10:49:16;;;;;;;;;;;;;;;18.37;65.71;97279.25;4253368;27;5035;-78
2022/10/25 10:51:21;;;;;;;;;;;;;;;18.38;65.67;97281.69;4252736;27;7705;-77
2022/10/25 10:53:44;;;;;;;;;;;;;;;18.37;65.70;97282.72;4228856;28;5625;-78
2022/10/25 10:55:50;;;;;;;;;;;;;;;18.38;65.77;97278.19;4236184;27;5593;-77
2022/10/25 10:57:54;;;;;;;;;;;;;;;18.37;65.67;97280.06;4236301;28;5606;-78
2022/10/25 10:59:57;;;;;;;;;;;;;;;18.38;65.60;97276.31;4244202;27;5827;-77
2022/10/25 11:02:25;;;;;;;;;;;;;;;18.39;65.71;97258.41;4246938;27;5581;-77
2022/10/25 11:04:30;;;;;;;;;;;;;;;18.42;65.54;97266.78;4244346;27;5676;-78
2022/10/25 11:06:34;;;;;;;;;;;;;;;18.42;65.38;97261.44;4234661;28;5095;-77
2022/10/25 11:08:37;;;;;;;;;;;;;;;18.42;65.39;97256.06;4252938;27;5811;-77
2022/10/25 11:10:41;;;;;;;;;;;;;;;18.44;65.41;97264.69;4230814;28;5608;-76
2022/10/25 11:12:45;;;;;;;;;;;;;;;18.46;65.40;97257.25;4235897;28;5691;-77
2022/10/25 11:14:48;;;;;;;;;;;;;;;18.47;65.47;97250.84;4235576;28;5772;-76
2022/10/25 11:16:59;;;;;;;;;;;;;;;18.49;65.41;97248.75;4237548;27;5609;-77
2022/10/25 11:19:14;;;;;;;;;;;;;;;18.50;65.45;97238.84;4252812;27;5594;-77
2022/10/25 11:21:33;;;;;;;;;;;;;;;18.50;65.32;97237.00;4252606;27;5815;-77
2022/10/25 11:23:48;;;;;;;;;;;;;;;18.52;65.24;97245.59;4235607;28;5581;-77
2022/10/25 11:25:57;;;;;;;;;;;;;;;18.52;65.39;97236.75;4229131;28;5829;-77
2022/10/25 11:28:24;;;;;;;;;;;;;;;18.50;65.21;97239.69;4249899;27;5679;-77
2022/10/25 11:30:34;;;;;;;;;;;;;;;18.50;65.43;97233.50;4236373;27;5716;-78
2022/10/25 11:33:01;;;;;;;;;;;;;;;18.49;65.11;97232.69;4229891;28;5597;-77
2022/10/25 11:35:09;;;;;;;;;;;;;;;18.49;65.11;97235.38;4235356;28;5598;-76
2022/10/25 11:37:19;;;;;;;;;;;;;;;18.47;65.12;97225.94;4237549;27;5590;-77
2022/10/25 11:39:35;;;;;;;;;;;;;;;18.47;64.93;97231.31;4225009;28;5598;-78
2022/10/25 11:41:45;;;;;;;;;;;;;;;18.48;65.20;97227.56;4227141;28;5594;-77
2022/10/25 11:44:02;;;;;;;;;;;;;;;18.50;65.07;97222.78;4235270;28;5598;-78
2022/10/25 11:46:15;;;;;;;;;;;;;;;18.51;65.15;97227.91;4235589;28;5832;-77
2022/10/25 11:48:45;;;;;;;;;;;;;;;18.52;65.23;97226.88;4240544;27;5605;-77
2022/10/25 11:50:57;;;;;;;;;;;;;;;18.53;64.84;97220.47;4221293;28;5687;-77
2022/10/25 11:53:24;;;;;;;;;;;;;;;18.54;64.92;97222.09;4230171;28;5099;-77
2022/10/25 11:55:34;;;;;;;;;;;;;;;18.55;65.10;97217.53;4232485;28;5157;-78
2022/10/25 11:57:46;;;;;;;;;;;;;;;18.57;64.77;97215.44;4233357;28;5118;-78
2022/10/25 12:00:01;;;;;;;;;;;;;;;18.56;64.67;97214.63;4234979;28;5601;-78
2022/10/25 12:02:34;;;;;;;;;;;;;;;18.58;64.94;97215.25;4234943;28;5745;-78
2022/10/25 12:04:57;;;;;;;;;;;;;;;18.58;64.56;97206.41;4234897;28;6449;-78
2022/10/25 12:07:06;;;;;;;;;;;;;;;18.57;64.91;97202.06;4246663;27;6293;-77
2022/10/25 12:09:18;;;;;;;;;;;;;;;18.55;64.86;97196.94;4242562;27;5594;-77
2022/10/25 12:11:26;;;;;;;;;;;;;;;18.57;64.82;97189.50;4235081;27;5905;-78
2022/10/25 12:13:32;;;;;;;;;;;;;;;18.58;64.97;97180.44;4239443;27;5589;-78
2022/10/25 12:15:39;;;;;;;;;;;;;;;18.60;64.79;97186.34;4235142;28;5618;-78
2022/10/25 12:17:43;;;;;;;;;;;;;;;18.60;64.82;97180.19;4235142;28;5909;-78
2022/10/25 12:19:50;;;;;;;;;;;;;;;18.61;64.72;97187.97;4243922;27;5587;-78
2022/10/25 12:21:56;;;;;;;;;;;;;;;18.62;64.59;97184.25;4233083;27;5787;-78
2022/10/25 12:24:04;;;;;;;;;;;;;;;18.63;64.59;97193.09;4226025;28;5668;-77
2022/10/25 12:26:12;;;;;;;;;;;;;;;18.64;64.39;97189.41;4225429;28;5594;-77
2022/10/25 12:28:23;;;;;;;;;;;;;;;18.63;64.50;97185.06;4225416;28;5971;-77
2022/10/25 12:30:27;;;;;;;;;;;;;;;18.66;64.53;97191.84;4218176;28;5714;-77
2022/10/25 12:32:38;;;;;;;;;;;;;;;18.64;64.61;97189.41;4225382;28;5684;-77
2022/10/25 12:34:45;;;;;;;;;;;;;;;18.62;64.45;97192.28;4234746;28;5615;-78
2022/10/25 12:36:52;;;;;;;;;;;;;;;18.62;64.28;97191.47;4244706;27;5678;-77
2022/10/25 12:38:57;;;;;;;;;;;;;;;18.62;64.61;97189.63;4241013;27;6314;-78
2022/10/25 12:41:07;;;;;;;;;;;;;;;18.63;64.89;97190.41;4234495;28;5825;-78
2022/10/25 12:43:16;;;;;;;;;;;;;;;18.63;64.85;97188.56;4234771;28;5598;-78
2022/10/25 12:45:52;;;;;;;;;;;;;;;18.66;64.82;97184.63;4234721;28;5601;-79
2022/10/25 12:48:16;;;;;;;;;;;;;;;18.68;64.54;97187.06;4239964;27;5602;-78
2022/10/25 12:50:35;;;;;;;;;;;;;;;18.67;64.73;97177.41;4251226;27;5839;-78
2022/10/25 12:52:41;;;;;;;;;;;;;;;18.66;64.77;97176.59;4217728;28;5786;-78
2022/10/25 12:55:15;;;;;;;;;;;;;;;18.67;64.97;97172.84;4227700;27;5606;-78
2022/10/25 12:57:26;;;;;;;;;;;;;;;18.69;64.78;97173.47;4244804;27;5727;-77
2022/10/25 12:59:43;;;;;;;;;;;;;;;18.69;64.81;97181.50;4233725;28;5063;-78
2022/10/25 13:02:03;;;;;;;;;;;;;;;18.68;64.73;97179.84;4227088;28;5609;-78
2022/10/25 13:04:31;;;;;;;;;;;;;;;18.67;64.80;97172.03;4234003;28;5657;-78
2022/10/25 13:06:37;;;;;;;;;;;;;;;18.67;64.89;97167.50;4233528;28;6386;-78
2022/10/25 13:08:41;;;;;;;;;;;;;;;18.68;64.56;97162.97;4217544;28;6305;-78
2022/10/25 13:10:48;;;;;;;;;;;;;;;18.69;64.80;97169.94;4199358;28;5730;-78
2022/10/25 13:13:03;;;;;;;;;;;;;;;18.70;64.98;97168.91;4218953;28;5624;-77
2022/10/25 13:15:06;;;;;;;;;;;;;;;18.71;64.60;97162.50;4202180;28;5745;-78
2022/10/25 13:17:47;;;;;;;;;;;;;;;18.71;64.64;97162.50;4229968;28;5658;-78
2022/10/25 13:19:51;;;;;;;;;;;;;;;18.70;64.95;97152.84;4244354;27;5607;-78
2022/10/25 13:22:12;;;;;;;;;;;;;;;18.70;64.69;97150.19;4221758;28;5624;-78
2022/10/25 13:24:36;;;;;;;;;;;;;;;18.70;64.66;97145.63;4230956;28;5840;-77
2022/10/25 13:27:15;;;;;;;;;;;;;;;18.72;64.76;97145.38;4233979;28;5597;-78
2022/10/25 13:29:52;;;;;;;;;;;;;;;18.71;64.71;97136.53;4234344;28;5839;-78
2022/10/25 13:32:05;;;;;;;;;;;;;;;18.71;64.76;97139.22;4221142;28;5713;-78
2022/10/25 13:34:37;;;;;;;;;;;;;;;18.70;64.69;97139.47;4247688;27;5676;-78
2022/10/25 13:36:50;;;;;;;;;;;;;;;18.70;64.55;97136.78;4234724;27;5757;-78
2022/10/25 13:39:03;;;;;;;;;;;;;;;18.72;65.07;97140.03;4240471;27;5693;-78
2022/10/25 13:41:16;;;;;;;;;;;;;;;18.74;64.97;97151.31;4226350;28;5607;-77
2022/10/25 13:43:20;;;;;;;;;;;;;;;18.74;64.61;97137.94;4227840;28;5103;-78
2022/10/25 13:45:32;;;;;;;;;;;;;;;18.76;64.90;97143.84;4233785;28;5630;-77
2022/10/25 13:47:39;;;;;;;;;;;;;;;18.74;64.57;97137.94;4233826;28;5585;-77
2022/10/25 13:49:44;;;;;;;;;;;;;;;18.76;64.90;97133.97;4216746;28;6504;-77
2022/10/25 13:51:48;;;;;;;;;;;;;;;18.77;64.92;97126.72;4216703;28;5671;-77
2022/10/25 13:53:53;;;;;;;;;;;;;;;18.77;64.68;97118.69;4238247;27;6386;-76
2022/10/25 13:56:04;;;;;;;;;;;;;;;18.77;64.56;97113.34;4244724;27;5602;-77
2022/10/25 13:58:44;;;;;;;;;;;;;;;18.79;64.85;97105.88;4250922;27;6275;-78
2022/10/25 14:00:49;;;;;;;;;;;;;;;18.78;64.51;97110.41;4209634;28;5766;-77
2022/10/25 14:03:21;;;;;;;;;;;;;;;18.73;64.77;97114.88;4216536;28;5797;-77
2022/10/25 14:05:57;;;;;;;;;;;;;;;18.74;64.72;97105.78;4206100;28;5688;-78
2022/10/25 14:08:19;;;;;;;;;;;;;;;18.77;64.73;97103.44;4216309;28;5771;-78
2022/10/25 14:10:27;;;;;;;;;;;;;;;18.78;64.78;97104.25;4216899;28;5081;-77
2022/10/25 14:12:32;;;;;;;;;;;;;;;18.79;64.63;97105.88;4220253;28;5672;-77
2022/10/25 14:14:44;;;;;;;;;;;;;;;18.79;64.87;97112.03;4219924;28;5763;-77
2022/10/25 14:17:07;;;;;;;;;;;;;;;18.79;64.58;97105.88;4218762;28;5770;-77
2022/10/25 14:19:15;;;;;;;;;;;;;;;18.79;64.60;97108.56;4213561;28;5704;-77
2022/10/25 14:21:19;;;;;;;;;;;;;;;18.81;64.63;97103.81;4213418;28;6867;-77
2022/10/25 14:23:29;;;;;;;;;;;;;;;18.81;64.92;97103.81;4219358;28;5671;-77
2022/10/25 14:25:35;;;;;;;;;;;;;;;18.81;64.76;97101.13;4208639;28;5835;-77
2022/10/25 14:27:38;;;;;;;;;;;;;;;18.82;64.71;97103.56;4204566;28;5787;-77
2022/10/25 14:29:42;;;;;;;;;;;;;;;18.81;64.58;97093.91;4219637;28;5748;-77
2022/10/25 14:31:45;;;;;;;;;;;;;;;18.81;64.92;97098.44;4214731;28;5701;-77
2022/10/25 14:33:53;;;;;;;;;;;;;;;18.80;64.96;97099.47;4216971;28;5078;-77
2022/10/25 14:35:58;;;;;;;;;;;;;;;18.81;64.83;97103.81;4219514;28;5661;-77
2022/10/25 14:38:02;;;;;;;;;;;;;;;18.82;64.89;97100.06;4219704;28;5826;-77
2022/10/25 14:40:20;;;;;;;;;;;;;;;18.82;64.85;97092.03;4219827;28;5858;-77
2022/10/25 14:42:23;;;;;;;;;;;;;;;18.85;64.79;97104.94;4219662;28;5669;-78
2022/10/25 14:44:28;;;;;;;;;;;;;;;18.83;64.65;97101.69;4212843;28;5693;-77
2022/10/25 14:46:32;;;;;;;;;;;;;;;18.84;64.70;97108.69;4218265;28;5771;-78
2022/10/25 14:48:36;;;;;;;;;;;;;;;18.83;64.88;97101.69;4212498;28;5701;-77
2022/10/25 14:50:39;;;;;;;;;;;;;;;18.83;64.70;97101.69;4208622;28;5752;-77
2022/10/25 14:52:44;;;;;;;;;;;;;;;18.82;64.88;97100.06;4217022;28;5667;-77
2022/10/25 14:54:54;;;;;;;;;;;;;;;18.82;64.66;97100.88;4205807;28;5698;-77
2022/10/25 14:57:02;;;;;;;;;;;;;;;18.82;64.69;97089.34;4209685;28;5794;-77
2022/10/25 14:59:16;;;;;;;;;;;;;;;18.83;64.70;97094.47;4217205;28;5989;-77
2022/10/25 15:01:21;;;;;;;;;;;;;;;18.83;64.86;97093.66;4235465;28;5753;-77
2022/10/25 15:03:26;;;;;;;;;;;;;;;18.83;64.78;97090.97;4229292;28;5804;-77
2022/10/25 15:05:29;;;;;;;;;;;;;;;18.84;64.86;97087.25;4232050;28;5856;-78
2022/10/25 15:07:36;;;;;;;;;;;;;;;18.84;64.91;97082.72;4228552;28;5107;-77
2022/10/25 15:09:48;;;;;;;;;;;;;;;18.84;64.99;97073.84;4233083;28;7664;-78
2022/10/25 15:12:16;;;;;;;;;;;;;;;18.85;64.88;97076.28;4226963;28;5829;-78
2022/10/25 15:14:21;;;;;;;;;;;;;;;18.85;64.98;97078.97;4234037;27;5708;-77
2022/10/25 15:16:32;;;;;;;;;;;;;;;18.85;64.79;97070.94;4230133;27;5812;-77
2022/10/25 15:18:38;;;;;;;;;;;;;;;18.87;65.05;97065.34;4234582;27;5776;-78
2022/10/25 15:20:40;;;;;;;;;;;;;;;18.85;65.05;97060.22;4229354;27;5711;-77
2022/10/25 15:22:45;;;;;;;;;;;;;;;18.86;64.90;97055.69;4230969;28;6281;-78
2022/10/25 15:24:48;;;;;;;;;;;;;;;18.86;64.78;97059.16;4227164;28;5660;-78
2022/10/25 15:26:58;;;;;;;;;;;;;;;18.87;64.85;97052.75;4223973;28;5605;-77
2022/10/25 15:29:02;;;;;;;;;;;;;;;18.87;64.90;97054.63;4231020;28;5788;-77
2022/10/25 15:31:06;;;;;;;;;;;;;;;18.87;64.90;97063.47;4226532;27;6290;-77
2022/10/25 15:33:11;;;;;;;;;;;;;;;18.87;64.76;97058.13;4222805;28;5778;-78
2022/10/25 15:35:22;;;;;;;;;;;;;;;18.86;65.19;97064.53;4230800;28;5798;-75
2022/10/25 15:37:27;;;;;;;;;;;;;;;18.85;65.01;97062.91;4224905;28;5735;-76
2022/10/25 15:39:31;;;;;;;;;;;;;;;18.85;64.92;97064.75;4227403;28;5807;-77
2022/10/25 15:41:35;;;;;;;;;;;;;;;18.84;65.03;97069.31;4235164;28;5860;-77
2022/10/25 15:43:38;;;;;;;;;;;;;;;18.84;64.89;97065.81;4228869;28;5664;-78
2022/10/25 15:45:42;;;;;;;;;;;;;;;18.84;65.14;97068.50;4225850;28;5800;-74
2022/10/25 15:47:46;;;;;;;;;;;;;;;18.81;64.91;97066.31;4222063;28;5893;-72
2022/10/25 15:49:51;;;;;;;;;;;;;;;18.78;65.45;97072.94;4226977;28;5781;-73
2022/10/25 15:51:54;;;;;;;;;;;;;;;18.78;65.12;97064.91;4225897;28;6525;-73
2022/10/25 15:53:57;;;;;;;;;;;;;;;18.79;65.02;97068.38;4237577;27;5594;-72
2022/10/25 15:56:00;;;;;;;;;;;;;;;18.80;65.09;97075.38;4232117;27;5688;-71
2022/10/25 15:58:03;;;;;;;;;;;;;;;18.80;65.23;97064.66;4232687;27;5590;-71
2022/10/25 16:00:14;;;;;;;;;;;;;;;18.81;65.07;97066.31;4228698;28;6326;-72
2022/10/25 16:02:21;;;;;;;;;;;;;;;18.78;65.29;97061.41;4229026;28;5931;-72
2022/10/25 16:04:24;;;;;;;;;;;;;;;18.81;65.19;97063.63;4233537;28;5625;-71
2022/10/25 16:06:27;;;;;;;;;;;;;;;18.79;65.07;97074.56;4233931;28;5684;-71
2022/10/25 16:08:30;;;;;;;;;;;;;;;18.78;65.17;97064.09;4212881;28;5770;-73
2022/10/25 16:10:33;;;;;;;;;;;;;;;18.77;65.10;97065.94;4229957;27;5711;-73
2022/10/25 16:12:37;;;;;;;;;;;;;;;18.78;65.42;97064.09;4232877;28;5793;-76
2022/10/25 16:14:40;;;;;;;;;;;;;;;18.78;65.30;97056.03;4232928;28;5601;-75
2022/10/25 16:16:43;;;;;;;;;;;;;;;18.78;65.30;97053.38;4230805;28;5242;-76
2022/10/25 16:18:47;;;;;;;;;;;;;;;18.79;65.18;97057.66;4228261;28;5783;-76
2022/10/25 16:20:50;;;;;;;;;;;;;;;18.78;65.01;97048.00;4231886;28;5805;-75
2022/10/25 16:22:54;;;;;;;;;;;;;;;18.77;65.19;97049.06;4229018;27;5751;-75
2022/10/25 16:24:57;;;;;;;;;;;;;;;18.76;65.33;97045.56;4242069;27;5759;-75
2022/10/25 16:27:00;;;;;;;;;;;;;;;18.76;65.18;97047.44;4243286;27;5696;-75
2022/10/25 16:29:03;;;;;;;;;;;;;;;18.77;65.18;97049.06;4231020;28;5764;-75
2022/10/25 16:31:05;;;;;;;;;;;;;;;18.76;65.43;97050.13;4229706;27;5706;-74
2022/10/25 16:33:08;;;;;;;;;;;;;;;18.75;64.99;97041.28;4230041;27;5949;-74
2022/10/25 16:35:14;;;;;;;;;;;;;;;18.73;65.38;97038.03;4231920;28;8506;-74
2022/10/25 16:37:17;;;;;;;;;;;;;;;18.70;65.14;97024.31;4231782;28;5598;-74
2022/10/25 16:39:20;;;;;;;;;;;;;;;18.74;65.45;97033.47;4234329;28;5833;-74
2022/10/25 16:41:25;;;;;;;;;;;;;;;18.73;65.45;97029.19;4237298;27;5680;-74
2022/10/25 16:43:28;;;;;;;;;;;;;;;18.72;65.41;97020.34;4228812;27;5608;-73
2022/10/25 16:45:33;;;;;;;;;;;;;;;18.72;65.10;97019.53;4230418;28;5845;-75
2022/10/25 16:47:36;;;;;;;;;;;;;;;18.71;65.21;97018.72;4228228;28;5687;-74
2022/10/25 16:49:39;;;;;;;;;;;;;;;18.71;65.48;97024.06;4224432;28;5856;-73
2022/10/25 16:51:43;;;;;;;;;;;;;;;18.71;65.37;97025.94;4224093;28;5668;-73
2022/10/25 16:53:47;;;;;;;;;;;;;;;18.72;65.30;97038.28;4227912;28;5683;-73
2022/10/25 16:55:50;;;;;;;;;;;;;;;18.71;65.42;97025.94;4229453;28;5707;-72
2022/10/25 16:57:53;;;;;;;;;;;;;;;18.70;65.38;97021.63;4225020;28;5800;-73
2022/10/25 16:59:56;;;;;;;;;;;;;;;18.69;65.63;97020.81;4232028;27;5617;-73
2022/10/25 17:01:59;;;;;;;;;;;;;;;18.69;65.19;97028.84;4234948;27;5610;-73
2022/10/25 17:04:02;;;;;;;;;;;;;;;18.70;65.61;97027.00;4233690;28;5586;-73
2022/10/25 17:06:05;;;;;;;;;;;;;;;18.70;65.46;97032.34;4234939;27;5636;-72
2022/10/25 17:08:29;;;;;;;;;;;;;;;18.70;65.34;97027.81;4220609;28;5719;-72
2022/10/25 17:10:32;;;;;;;;;;;;;;;18.69;65.27;97023.50;4230728;28;5601;-73
2022/10/25 17:12:42;;;;;;;;;;;;;;;18.69;65.61;97020.81;4215745;28;5782;-74
2022/10/25 17:14:45;;;;;;;;;;;;;;;18.68;65.46;97023.72;4219669;28;5853;-73
2022/10/25 17:16:47;;;;;;;;;;;;;;;18.68;65.44;97024.53;4225729;27;5697;-74